Latest Weather Observations for Innisfail Aero

IDQ60801

Issued at 11:03 am EST Sunday 18 February 2018 (issued every 30 minutes, with the page automatically refreshed every 10 minutes)

About weather observations | Map of weather stations | Latest weather observations for QLD | Other Formats
Station Details ID: 032197 Name: INNISFAIL AERODROME Lat: -17.56 Lon: 146.01 Height: 11.84 m
Data from the previous 72 hours. | See also: Recent months for locations in Queensland
Date/Time
EST
Temp
°C
App
Temp
°C
Dew
Point
°C
Rel
Hum
%
Delta-T
°C
Wind Press
QNH
hPa
Press
MSL
hPa
Rain since
9am
mm
Dir  Spd
km/h
Gust
km/h
Spd
kts
Gust
kts
18/11:00am 30.6 34.6 23.8 67 4.7 E 9 17 5 9 1009.4 1009.3 0.0
18/10:30am 29.7 33.4 23.2 68 4.5 SE 9 17 5 9 1009.7 1009.6 0.0
18/10:00am 29.7 34.6 23.6 69 4.2 ESE 4 9 2 5 1009.9 1009.8 0.0
18/09:30am 27.9 32.5 21.7 69 4.2 CALM 0 6 0 3 1010.1 1010.0 0.0
18/09:00am 26.2 30.0 22.7 81 2.4 W 7 11 4 6 1010.1 1010.0 4.4
18/08:30am 24.4 28.2 21.7 85 1.8 SSW 4 7 2 4 1010.0 1009.9 4.4
18/08:00am 23.3 28.4 22.6 96 0.5 CALM 0 0 0 0 1009.7 1009.6 4.4
18/07:30am 22.4 26.4 22.1 98 0.2 N 4 6 2 3 1009.7 1009.6 4.4
18/07:00am 22.0 26.6 21.8 99 0.1 CALM 0 0 0 0 1009.7 1009.6 4.4
18/06:30am 21.5 25.4 21.2 98 0.2 NNE 2 6 1 3 1009.0 1008.9 4.4
18/06:00am 21.7 25.0 21.4 98 0.2 W 6 7 3 4 1008.9 1008.8 4.4
18/05:30am 21.9 25.3 21.6 98 0.2 N 6 7 3 4 1008.5 1008.4 4.4
18/05:00am 21.9 24.9 21.2 96 0.5 WNW 7 9 4 5 1008.5 1008.4 4.4
18/04:30am 22.1 24.9 21.6 97 0.3 SW 9 11 5 6 1008.3 1008.2 4.4
18/04:00am 22.0 26.1 21.5 97 0.3 NNW 2 6 1 3 1008.1 1008.0 4.4
18/03:30am 22.3 25.3 22.0 98 0.2 N 9 11 5 6 1008.0 1007.9 4.4
18/03:00am 22.7 26.7 22.0 96 0.5 W 4 9 2 5 1008.3 1008.2 4.4
18/02:30am 22.7 26.6 21.9 95 0.5 W 4 7 2 4 1008.1 1008.0 4.4
18/02:00am 22.8 25.5 22.1 96 0.5 SW 11 15 6 8 1008.4 1008.3 4.4
18/01:30am 22.8 25.9 22.1 96 0.5 NW 9 13 5 7 1008.7 1008.6 4.4
18/01:00am 22.6 24.9 22.1 97 0.3 N 13 17 7 9 1008.9 1008.8 4.4
18/12:30am 22.6 25.7 22.1 97 0.3 N 9 13 5 7 1009.3 1009.2 4.4
18/12:00am 22.8 25.1 22.0 95 0.5 NW 13 17 7 9 1009.7 1009.6 4.2
 
Date/Time
EST
Temp
°C
App
Temp
°C
Dew
Point
°C
Rel
Hum
%
Delta-T
°C
Wind Press
QNH
hPa
Press
MSL
hPa
Rain since
9am
mm
Dir  Spd
km/h
Gust
km/h
Spd
kts
Gust
kts
17/11:30pm 23.1 24.3 22.1 94 0.7 W 19 24 10 13 1010.3 1010.2 3.6
17/11:00pm 24.1 26.8 22.2 89 1.3 W 11 20 6 11 1010.6 1010.5 2.6
17/10:30pm 25.0 27.7 22.9 88 1.4 SW 13 17 7 9 1010.3 1010.2 2.4
17/10:07pm 25.7 27.1 22.6 83 2.1 SW 19 26 10 14 1010.3 1010.2 2.4
17/10:00pm 25.9 27.3 22.8 83 2.1 SW 20 32 11 17 1010.4 1010.3 2.4
17/09:55pm 26.4 29.1 24.1 87 1.6 SW 17 26 9 14 1010.4 1010.3 2.4
17/09:49pm 26.5 31.4 24.7 90 1.3 SW 7 20 4 11 1010.1 1010.0 2.4
17/09:30pm 26.8 31.2 25.0 90 1.3 SSW 11 15 6 8 1009.7 1009.6 2.4
17/09:28pm 26.8 30.7 24.8 89 1.4 SSW 13 15 7 8 1009.6 1009.5 2.4
17/09:00pm 26.2 30.9 25.0 93 0.8 SSE 9 13 5 7 1009.2 1009.1 2.4
17/08:30pm 26.4 30.8 25.0 92 1.0 SSE 11 13 6 7 1009.1 1009.0 2.4
17/08:00pm 26.1 31.5 24.5 91 1.1 NE 4 9 2 5 1007.8 1007.7 2.4
17/07:30pm 26.5 30.6 24.5 89 1.4 NNE 11 15 6 8 1006.8 1006.7 2.4
17/07:00pm 26.8 31.2 24.5 87 1.6 NE 9 15 5 8 1006.4 1006.3 2.4
17/06:30pm 27.6 31.5 23.6 79 2.7 NE 9 15 5 8 1006.1 1006.0 2.4
17/06:00pm 29.1 32.5 24.0 74 3.5 NE 13 19 7 10 1005.4 1005.3 2.4
17/05:30pm 30.0 32.9 24.4 72 3.9 NE 17 20 9 11 1005.1 1005.0 2.4
17/05:00pm 30.5 33.1 23.9 68 4.6 NE 17 24 9 13 1005.0 1004.9 2.4
17/04:30pm 30.7 31.8 23.6 66 4.9 NE 24 32 13 17 1004.9 1004.8 2.4
17/04:00pm 32.8 34.2 22.6 55 7.0 NE 19 24 10 13 1004.8 1004.7 2.4
17/03:30pm 33.1 35.3 24.0 59 6.4 ENE 19 24 10 13 1004.8 1004.7 2.4
17/03:00pm 34.2 38.2 25.6 61 6.2 NE 15 19 8 10 1004.7 1004.6 2.4
17/02:30pm 34.9 39.0 23.9 53 7.7 NNE 9 17 5 9 1005.0 1004.9 2.4
17/02:00pm 34.4 38.0 22.1 48 8.4 W 6 9 3 5 1005.1 1005.0 2.4
17/01:30pm 33.3 36.1 21.5 50 8.0 W 9 15 5 8 1005.5 1005.4 2.4
17/01:00pm 31.9 35.1 23.7 62 5.7 WSW 13 17 7 9 1006.0 1005.9 2.4
17/12:30pm 30.1 33.0 23.8 69 4.4 WSW 15 20 8 11 1006.5 1006.4 2.4
17/12:00pm 28.1 32.1 25.1 84 2.1 W 13 19 7 10 1007.5 1007.4 2.4
17/11:30am 26.2 30.0 24.1 88 1.4 WNW 11 17 6 9 1008.2 1008.1 2.2
17/11:00am 23.7 27.2 23.5 99 0.1 NW 11 15 6 8 1009.2 1009.1 2.2
17/10:30am 23.1 25.1 22.9 99 0.1 NNW 17 20 9 11 1010.4 1010.3 1.8
17/10:00am 23.2 26.2 22.7 97 0.3 NW 11 13 6 7 1012.0 1011.9 0.4
17/09:30am 23.3 25.7 22.3 94 0.7 NW 13 17 7 9 1012.6 1012.5 0.0
17/09:00am 23.3 25.8 22.5 95 0.5 NW 13 19 7 10 1012.7 1012.6 1.6
17/08:30am 22.9 26.4 22.2 96 0.5 NNW 7 9 4 5 1012.2 1012.1 1.6
17/08:00am 23.1 25.4 22.1 94 0.7 SSE 13 19 7 10 1011.2 1011.1 1.6
17/07:50am 22.9 23.8 21.5 92 0.9 ESE 19 24 10 13 1010.9 1010.8 1.6
17/07:30am 23.2 23.0 22.7 97 0.3 ESE 28 41 15 22 1010.5 1010.4 0.4
17/07:26am 23.3 23.3 23.0 98 0.2 ESE 28 41 15 22 1010.3 1010.2 0.2
17/07:17am 23.7 20.8 23.0 96 0.5 SE 43 69 23 37 1010.6 1010.5 0.0
17/07:09am 24.0 23.1 23.1 95 0.6 SSE 33 69 18 37 1010.0 1009.9 0.0
17/07:05am 24.4 26.6 23.9 97 0.3 SSE 19 43 10 23 1010.0 1009.9 0.0
17/07:00am 24.5 29.1 24.2 98 0.2 SE 7 19 4 10 1009.6 1009.5 0.0
17/06:30am 24.1 28.5 23.8 98 0.2 SW 7 11 4 6 1008.3 1008.2 0.0
17/06:00am 23.9 28.0 23.9 100 0.0 S 9 11 5 6 1007.9 1007.8 0.0
17/05:30am 23.4 27.5 23.2 99 0.1 ENE 7 9 4 5 1007.0 1006.9 0.0
17/05:00am 23.9 28.4 23.6 98 0.2 W 6 9 3 5 1006.5 1006.4 0.0
17/04:30am 24.2 27.5 23.9 98 0.2 SW 13 17 7 9 1007.1 1007.0 0.0
17/04:00am 23.4 27.2 23.4 100 0.0 SSW 9 15 5 8 1006.8 1006.7 0.0
17/03:30am 23.5 29.1 23.5 100 0.0 CALM 0 4 0 2 1006.3 1006.2 0.0
17/03:00am 23.4 27.6 23.4 100 0.0 NNW 7 9 4 5 1006.0 1005.9 0.0
17/02:30am 23.5 27.0 23.5 100 0.0 N 11 13 6 7 1006.2 1006.1 0.0
17/02:00am 23.4 28.5 23.4 100 0.0 N 2 9 1 5 1006.8 1006.7 0.0
17/01:30am 23.9 29.7 23.9 100 0.0 CALM 0 0 0 0 1006.9 1006.8 0.0
17/01:00am 23.6 28.3 23.4 99 0.1 NW 4 6 2 3 1007.2 1007.1 0.0
17/12:30am 23.9 28.2 23.7 99 0.1 NNW 7 9 4 5 1007.4 1007.3 0.0
17/12:00am 24.1 29.9 23.9 99 0.1 CALM 0 0 0 0 1007.7 1007.6 0.0
 
Date/Time
EST
Temp
°C
App
Temp
°C
Dew
Point
°C
Rel
Hum
%
Delta-T
°C
Wind Press
QNH
hPa
Press
MSL
hPa
Rain since
9am
mm
Dir  Spd
km/h
Gust
km/h
Spd
kts
Gust
kts
16/11:30pm 24.2 29.7 24.0 99 0.1 NNW 2 7 1 4 1007.8 1007.7 0.0
16/11:00pm 24.3 28.1 24.0 98 0.2 NNW 11 11 6 6 1007.9 1007.8 0.0
16/10:30pm 25.0 29.6 24.1 95 0.6 NW 7 9 4 5 1008.2 1008.1 0.0
16/10:00pm 25.3 30.5 24.8 97 0.3 W 6 11 3 6 1008.0 1007.9 0.0
16/09:30pm 25.5 30.8 25.2 98 0.2 NNW 7 9 4 5 1007.6 1007.5 0.0
16/09:00pm 26.3 32.1 25.8 97 0.4 NNW 6 7 3 4 1007.3 1007.2 0.0
16/08:30pm 26.6 32.4 26.1 97 0.4 WNW 7 9 4 5 1007.0 1006.9 0.0
16/08:00pm 26.8 32.5 25.9 95 0.6 NW 7 9 4 5 1007.0 1006.9 0.0
16/07:30pm 27.2 33.2 26.0 93 0.8 N 6 7 3 4 1006.6 1006.5 0.0
16/07:00pm 28.1 34.1 26.3 90 1.3 N 7 9 4 5 1006.5 1006.4 0.0
16/06:30pm 28.8 35.3 26.8 89 1.4 N 6 7 3 4 1006.4 1006.3 0.0
16/06:00pm 29.6 35.0 26.6 84 2.2 N 11 15 6 8 1006.2 1006.1 0.0
16/05:30pm 30.4 35.8 27.2 83 2.3 NNE 13 17 7 9 1006.1 1006.0 0.0
16/05:00pm 29.9 34.7 26.3 81 2.6 NE 13 17 7 9 1006.3 1006.2 0.0
16/04:30pm 30.9 35.1 25.3 72 4.0 ENE 13 17 7 9 1006.3 1006.2 0.0
16/04:00pm 32.5 37.0 27.0 73 4.0 ENE 17 22 9 12 1006.6 1006.5 0.0
16/03:30pm 30.9 35.7 26.8 79 2.9 NE 15 22 8 12 1006.9 1006.8 0.0
16/03:00pm 32.4 36.9 26.9 73 4.0 NE 17 22 9 12 1007.1 1007.0 0.0
16/02:30pm 33.0 37.7 27.3 72 4.1 NE 17 24 9 13 1007.3 1007.2 0.0
16/02:00pm 32.9 37.2 27.2 72 4.1 NE 19 24 10 13 1007.5 1007.4 0.0
16/01:30pm 33.5 38.5 27.7 71 4.2 NE 17 22 9 12 1007.9 1007.8 0.0
16/01:00pm 32.5 36.9 26.3 70 4.5 ENE 15 22 8 12 1008.4 1008.3 0.0
16/12:30pm 32.8 38.5 27.5 73 3.9 E 13 22 7 12 1008.6 1008.5 0.0
16/12:00pm 32.6 37.6 27.1 73 4.0 E 15 22 8 12 1008.7 1008.6 0.0
16/11:30am 31.9 35.6 25.7 69 4.4 SSE 17 22 9 12 1009.1 1009.0 0.0
16/11:00am 32.5 37.1 25.3 66 5.1 ESE 11 17 6 9 1009.6 1009.5 0.0
16/10:30am 31.5 36.3 26.3 74 3.7 S 13 17 7 9 1010.2 1010.1 0.0
16/10:00am 30.6 35.9 25.9 76 3.3 SSE 9 13 5 7 1010.5 1010.4 0.0
16/09:30am 30.4 35.8 25.5 75 3.5 SW 7 11 4 6 1010.6 1010.5 0.0
16/09:00am 30.5 36.7 26.7 80 2.7 NNE 7 11 4 6 1010.6 1010.5 0.0
16/08:30am 29.0 34.4 26.6 87 1.7 NNW 11 15 6 8 1010.5 1010.4 0.0
16/08:00am 27.5 33.8 27.3 99 0.1 NNW 9 13 5 7 1010.3 1010.2 0.0
16/07:30am 26.1 31.9 26.1 100 0.0 NNW 7 9 4 5 1010.2 1010.1 0.0
16/07:00am 25.3 30.8 25.3 100 0.0 NNW 6 7 3 4 1009.8 1009.7 0.0
16/06:30am 24.7 29.6 24.7 100 0.0 NW 7 9 4 5 1009.5 1009.4 0.0
16/06:07am 24.1 28.3 24.1 100 0.0 NNW 9 11 5 6 1009.3 1009.2 0.0
16/06:00am 24.1 28.7 24.1 100 0.0 NNW 7 9 4 5 1009.2 1009.1 0.0
16/05:30am 23.8 28.2 23.8 100 0.0 N 7 9 4 5 1009.2 1009.1 0.0
16/05:28am 23.9 28.0 23.9 100 0.0 N 9 9 5 5 1009.2 1009.1 0.0
16/05:27am 23.9 28.0 23.9 100 0.0 N 9 9 5 5 1009.2 1009.1 0.0
16/05:00am 24.3 29.2 24.3 100 0.0 NNE 6 7 3 4 1009.0 1008.9 0.0
16/04:36am 24.1 30.0 24.1 100 0.0 CALM 0 0 0 0 1008.7 1008.6 0.0
16/04:30am 24.4 30.5 24.4 100 0.0 CALM 0 0 0 0 1008.6 1008.5 0.0
16/04:00am 25.0 30.1 25.0 100 0.0 W 7 11 4 6 1008.4 1008.3 0.0
16/03:30am 24.8 29.8 24.8 100 0.0 S 7 9 4 5 1008.3 1008.2 0.0
16/03:00am 24.9 30.9 24.9 100 0.0 SE 2 6 1 3 1008.3 1008.2 0.0
16/02:41am 25.1 30.5 25.1 100 0.0 W 6 7 3 4 1008.3 1008.2 0.0
16/02:30am 25.2 30.1 25.2 100 0.0 NW 9 11 5 6 1008.3 1008.2 0.0
16/02:00am 24.7 29.6 24.7 100 0.0 NNE 7 9 4 5 1008.5 1008.4 0.0
16/01:32am 25.0 30.3 25.0 100 0.0 NNW 6 7 3 4 1008.9 1008.8 0.0
16/01:30am 25.1 30.5 25.1 100 0.0 N 6 7 3 4 1009.0 1008.9 0.0
16/01:00am 25.0 29.6 24.8 99 0.1 NNW 9 11 5 6 1009.0 1008.9 0.0
16/12:30am 24.9 29.8 24.6 98 0.2 NNE 7 9 4 5 1008.8 1008.7 0.0
16/12:00am 26.0 31.8 25.7 98 0.2 NNE 6 7 3 4 1009.1 1009.0 0.0
 
Date/Time
EST
Temp
°C
App
Temp
°C
Dew
Point
°C
Rel
Hum
%
Delta-T
°C
Wind Press
QNH
hPa
Press
MSL
hPa
Rain since
9am
mm
Dir  Spd
km/h
Gust
km/h
Spd
kts
Gust
kts
15/11:30pm 26.7 33.0 26.0 96 0.5 WNW 4 7 2 4 1009.6 1009.5 0.0
15/11:00pm 26.6 33.6 25.9 96 0.5 CALM 0 0 0 0 1009.9 1009.8 0.0
15/10:30pm 27.1 33.4 26.0 94 0.8 NW 4 6 2 3 1009.7 1009.6 0.0
15/10:00pm 27.5 33.3 26.1 92 1.0 WNW 7 7 4 4 1009.6 1009.5 0.0
15/09:30pm 27.9 34.2 26.5 92 1.0 WNW 6 7 3 4 1009.6 1009.5 0.0
15/09:00pm 27.7 35.2 26.6 94 0.8 CALM 0 0 0 0 1009.2 1009.1 0.0
15/08:30pm 27.7 35.2 26.6 94 0.8 CALM 0 0 0 0 1008.6 1008.5 0.0
15/08:00pm 27.7 34.1 26.6 94 0.8 NW 6 6 3 3 1008.5 1008.4 0.0
15/07:30pm 27.4 32.9 26.2 93 0.9 NNE 9 9 5 5 1008.1 1008.0 0.0
15/07:00pm 27.8 32.7 25.8 89 1.4 NE 11 13 6 7 1007.7 1007.6 0.0
15/06:30pm 28.5 32.9 25.7 85 2.0 ENE 13 17 7 9 1007.5 1007.4 0.0
15/06:00pm 29.2 33.6 25.6 81 2.5 NE 13 19 7 10 1007.4 1007.3 0.0
15/05:30pm 30.3 33.9 25.6 76 3.3 NE 17 24 9 13 1007.1 1007.0 0.0
15/05:00pm 31.4 35.4 26.2 74 3.7 ENE 17 22 9 12 1007.0 1006.9 0.0
15/04:30pm 31.9 35.9 26.2 72 4.1 ENE 17 22 9 12 1007.2 1007.1 0.0
15/04:00pm 32.4 36.7 26.7 72 4.1 ENE 17 20 9 11 1007.3 1007.2 0.0
15/03:30pm 32.4 37.0 26.5 71 4.2 ENE 15 19 8 10 1007.6 1007.5 0.0
15/03:00pm 32.6 37.2 25.9 68 4.8 NE 13 19 7 10 1007.8 1007.7 0.0
15/02:30pm 32.8 37.3 26.4 69 4.6 NE 15 22 8 12 1008.2 1008.1 0.0
15/02:00pm 32.6 37.0 26.2 69 4.6 ENE 15 24 8 13 1008.6 1008.5 0.0
15/01:30pm 32.9 37.4 26.4 68 4.7 ENE 15 22 8 12 1009.1 1009.0 0.0
15/01:00pm 32.8 37.3 26.4 69 4.6 NE 15 20 8 11 1009.6 1009.5 0.0
15/12:30pm 32.7 36.9 26.5 70 4.5 NE 17 24 9 13 1010.1 1010.0 0.0
15/12:00pm 32.7 36.8 26.3 69 4.6 NE 17 22 9 12 1010.6 1010.5 0.0
15/11:30am 33.1 37.7 26.6 68 4.7 NE 15 20 8 11 1011.0 1010.9 0.0

Other Formats:

Comma delimited format used in spreadsheet applications
http://www.bom.gov.au/fwo/IDQ60801/IDQ60801.94280.axf

JavaScript Object Notation format (JSON) in row-major order
http://www.bom.gov.au/fwo/IDQ60801/IDQ60801.94280.json